Wednesday, December 19, 2018, 3:59 PM GMT
Back to Local

CYYY, Mont Joli, Que.

Location: , , Canada Lat: 48.6
Local Time: 3:59 PM GMT (15:59 GMT) Lon: -68.217
Time Zone: GMT Elev: 157 ft

Show me the last for .
Show Coded

Time T Td Feel RH Dir Speed Gust Alt SLP Vis Weather Sky Remarks
2018-12-19 15:00 21 10 6 62 270° 14 20 29.87 29.88 30 SCT027 BKN100 None
2018-12-19 14:00 19 10 7 67 270° 12 - 29.87 29.88 30 FEW025 BKN100 None
2018-12-19 13:00 19 9 5 62 290° 15 - 29.86 29.87 30 FEW025 BKN120 None
2018-12-19 12:00 19 9 4 62 280° 12 18 29.85 29.86 30 SCT025 BKN120 None
2018-12-19 11:00 19 10 3 67 290° 15 22 29.85 29.86 30 OVC025 None
2018-12-19 10:00 19 10 1 67 300° 18 26 29.83 29.85 30 OVC027 None
2018-12-19 09:00 19 10 3 67 300° 14 21 29.82 29.83 30 OVC028 None
2018-12-19 08:00 21 12 3 67 310° 16 29 29.81 29.83 30 OVC028 None
2018-12-19 07:00 21 12 7 67 300° 16 - 29.80 29.82 30 OVC030 None
2018-12-19 06:00 21 12 4 67 320° 20 28 29.79 29.80 30 OVC035 None
2018-12-19 05:00 23 12 7 62 320° 25 - 29.76 29.77 30 DRSN OVC038 None
2018-12-19 04:00 23 12 5 62 310° 24 32 29.76 29.77 30 DRSN OVC038 None
2018-12-19 03:00 25 14 7 62 310° 24 35 29.76 29.77 30 DRSN OVC045 None
2018-12-19 02:00 25 12 7 58 310° 25 32 29.74 29.75 30 DRSN OVC045 None
2018-12-19 01:00 25 14 7 62 310° 23 36 29.72 29.73 30 DRSN OVC045 None
2018-12-19 00:00 27 16 10 63 310° 23 32 29.70 29.72 30 DRSN OVC048 None
2018-12-18 23:00 27 16 10 63 310° 23 31 29.69 29.70 15 DRSN OVC048 None
2018-12-18 22:54 27 16 10 63 320° 21 31 29.69 29.70 15 DRSN OVC048 None
2018-12-18 22:00 27 16 10 63 320° 24 31 29.67 29.68 15 -SN DRSN OVC040 None
2018-12-18 21:35 27 16 9 63 320° 28 36 29.66 29.67 15 -SN DRSN BKN038 OVC080 None
2018-12-18 21:00 27 18 10 68 320° 25 33 29.64 29.66 15 DRSN BKN040 OVC080 None
2018-12-18 20:00 27 16 9 63 330° 26 35 29.62 29.63 15 DRSN BKN040 BKN078 None
2018-12-18 19:00 27 16 8 63 330° 25 39 29.59 29.61 15 BKN038 BKN080 None
2018-12-18 18:00 25 16 7 68 330° 28 35 29.58 29.59 15 DRSN BKN032 BKN080 None
2018-12-18 17:00 25 16 7 68 330° 22 33 29.58 29.59 15 DRSN BKN032 BKN075 None
2018-12-18 16:00 25 16 8 68 330° 22 31 29.58 29.60 15 DRSN BKN030 BKN070 None

Support USWX by starting your Amazon purchase here.